Schleswig Jagel, Germany

8:41 AM CEST on September 18, 2014 (GMT +0200)
Schleswig Air Base | Change Station
CLOSE
Current Station
Airport
Location: Schleswig Jagel,
Elevation: 82 ft
Nearby Weather Stations

Elev 82 ft 54.46 °N, 9.52 °E | Updated 21 minutes ago

Partly Cloudy
Partly Cloudy
59 °F
Feels Like 59 °F
N
7
Wind Variable Wind from ENE

Today
High -- | Low -- °F
--% Chance of Precip.
Yesterday
High -- | Low -- °F
Precip. -- in
6:59 AM 7:31 PM
Waning Crescent, 29% visible
Pressure 29.98 in
Visibility 6.2 miles
Clouds Few 13000 ft
Dew Point 57 °F
Humidity 94%
Rainfall 0.00 in
Snow Depth Not available.
UV 1 out of 12
Pollen Not available.
Air Quality Not available.
Flu Activity Not available.
METAR ETNS 180620Z 06006KT 9999 FEW130 15/14 Q1015 BLU+BLU+

More Conditions Fewer Conditions

Pressure 29.98 in
Visibility 6.2 miles
Clouds Few 13000 ft
Dew Point 57 °F
Humidity 94%
Rainfall 0.00 in
Snow Depth Not available.
UV 1 out of 12
Pollen Not available.
Air Quality Not available.
Flu Activity Not available.
METAR ETNS 180620Z 06006KT 9999 FEW130 15/14 Q1015 BLU+BLU+

More Conditions Fewer Conditions

10-Day Weather Forecast

Almanac

Astronomy

Sep. 18, 2014 Rise Set
Actual Time 6:59 AM CEST 7:31 PM CEST
Civil Twilight 6:23 AM CEST 8:07 PM CEST
Nautical Twilight 5:40 AM CEST 8:50 PM CEST
Astronomical Twilight 4:54 AM CEST 9:35 PM CEST
Moon 12:58 AM CEST 4:46 PM CEST
Length of Visible Light 13h 43m
Length of Day
12h 31m
Tomorrow will be 4m 21s shorter.
Waning Crescent, 29% of the Moon is Illuminated
Today
Waning Crescent
Sep 24
New
Oct 1
First Quarter
Oct 8
Full
Oct 15
Last Quarter

Yesterday's Extremes

Country Highs Country Lows

Community

WunderPhotos

Upload Photos

1,754,298 photos uploaded!

Nearby

Snow Depth

Not available.

Earthquake Activity

City Distance Mag. Time & Date
No recent earthquake activity has been reported nearby.
Minimum magnitude displayed is 2.5.

Coastal Water Temperatures

Place Temperature
No Stations Reporting

Nearby Weather Stations